Time;durP1;ratioP1;P1;durP2;ratioP2;P2;SDS_P1;SDS_P2;PMS_P1;PMS_P2;Temp;Humidity;BMP_temperature;BMP_pressure;BME280_temperature;BME280_humidity;BME280_pressure;Samples;Min_cycle;Max_cycle;Signal;HPM_P1;HPM_P2
2023/06/03 00:00:41;;;;;;;0.08;0.08;;;8.10;99.90;;;;;;5127017;27;20043;-75
2023/06/03 00:03:11;;;;;;;0.00;0.00;;;8.30;99.90;;;;;;5127205;27;20054;-76
2023/06/03 00:05:38;;;;;;;0.20;0.20;;;8.10;99.90;;;;;;5109309;27;20118;-75
2023/06/03 00:08:04;;;;;;;0.00;0.00;;;8.10;99.90;;;;;;5127296;27;20043;-76
2023/06/03 00:10:29;;;;;;;0.00;0.00;;;8.00;99.90;;;;;;5127215;27;20456;-76
2023/06/03 00:12:55;;;;;;;0.00;0.00;;;7.90;90.10;;;;;;5105110;28;20051;-75
2023/06/03 00:15:20;;;;;;;0.00;0.00;;;7.90;1.00;;;;;;5106450;28;20052;-75
2023/06/03 00:17:46;;;;;;;0.65;0.65;;;7.90;80.20;;;;;;5106693;28;20551;-75
2023/06/03 00:20:12;;;;;;;0.00;0.00;;;7.80;1.00;;;;;;5106169;28;20040;-77
2023/06/03 00:22:38;;;;;;;0.10;0.10;;;7.80;99.90;;;;;;5106803;28;20040;-76
2023/06/03 00:25:07;;;;;;;0.10;0.10;;;7.90;99.90;;;;;;5106630;28;20051;-76
2023/06/03 00:27:35;;;;;;;0.10;0.10;;;7.90;1.00;;;;;;5106321;28;20085;-75
2023/06/03 00:30:03;;;;;;;0.00;0.00;;;8.00;99.90;;;;;;5105888;28;20128;-75
2023/06/03 00:32:28;;;;;;;0.00;0.00;;;7.90;67.00;;;;;;5106239;28;20044;-75
2023/06/03 00:34:54;;;;;;;0.10;0.10;;;7.80;99.90;;;;;;5106256;28;20047;-75
2023/06/03 00:37:19;;;;;;;0.40;0.40;;;8.00;99.90;;;;;;5106230;28;20387;-75
2023/06/03 00:39:45;;;;;;;0.00;0.00;;;7.90;99.90;;;;;;5106104;28;20498;-75
2023/06/03 00:42:11;;;;;;;0.00;0.00;;;7.70;96.40;;;;;;5106152;28;20044;-75
2023/06/03 00:44:36;;;;;;;0.00;0.00;;;7.70;99.90;;;;;;5105989;28;20043;-75
2023/06/03 00:47:03;;;;;;;0.00;0.00;;;7.70;75.00;;;;;;5106101;28;20051;-75
2023/06/03 00:49:29;;;;;;;0.00;0.00;;;7.60;99.90;;;;;;5105812;28;20410;-75
2023/06/03 00:51:55;;;;;;;0.00;0.00;;;7.60;99.90;;;;;;5105714;28;20075;-75
2023/06/03 00:54:22;;;;;;;0.00;0.00;;;7.50;99.90;;;;;;5105988;28;20043;-75
2023/06/03 00:56:47;;;;;;;0.00;0.00;;;7.50;45.80;;;;;;5105709;28;20375;-74
2023/06/03 00:59:16;;;;;;;0.00;0.00;;;7.50;92.70;;;;;;5105458;28;20081;-75
2023/06/03 01:01:42;;;;;;;0.00;0.00;;;7.50;63.30;;;;;;5105499;28;20135;-75
2023/06/03 01:04:16;;;;;;;0.00;0.00;;;7.40;89.20;;;;;;5105210;28;20035;-74
2023/06/03 01:06:45;;;;;;;0.00;0.00;;;7.40;95.50;;;;;;5105622;28;20093;-75
2023/06/03 01:09:15;;;;;;;0.00;0.00;;;7.40;99.90;;;;;;5104842;28;20063;-75
2023/06/03 01:12:04;;;;;;;0.00;0.00;;;7.40;93.60;;;;;;5108616;27;20508;-75
2023/06/03 01:14:45;;;;;;;0.00;0.00;;;7.40;1.00;;;;;;5125971;27;20051;-75
2023/06/03 01:17:14;;;;;;;0.00;0.00;;;7.40;69.10;;;;;;5126151;27;20054;-75
2023/06/03 01:19:48;;;;;;;0.00;0.00;;;7.40;1.00;;;;;;5126391;27;20398;-75
2023/06/03 01:22:20;;;;;;;0.00;0.00;;;7.30;1.00;;;;;;5126533;27;20047;-75
2023/06/03 01:24:53;;;;;;;0.00;0.00;;;7.30;1.00;;;;;;5107022;27;20420;-75
2023/06/03 01:27:20;;;;;;;0.10;0.10;;;7.40;1.00;;;;;;5126055;27;20382;-75
2023/06/03 01:29:47;;;;;;;0.93;0.93;;;7.40;1.00;;;;;;5125623;27;20077;-75
2023/06/03 01:32:17;;;;;;;0.00;0.00;;;7.40;1.00;;;;;;5125566;27;20092;-75
2023/06/03 01:34:43;;;;;;;0.50;0.50;;;7.40;99.90;;;;;;5125114;27;20051;-75
2023/06/03 01:37:10;;;;;;;0.32;0.32;;;7.40;99.90;;;;;;5125056;27;20046;-75
2023/06/03 01:39:40;;;;;;;0.00;0.00;;;7.30;99.90;;;;;;5125213;27;20126;-75
2023/06/03 01:42:08;;;;;;;0.00;0.00;;;7.20;99.90;;;;;;5125312;27;20480;-77
2023/06/03 01:44:34;;;;;;;0.03;0.03;;;7.10;99.90;;;;;;5125140;27;20043;-76
2023/06/03 01:46:59;;;;;;;0.08;0.08;;;7.00;53.20;;;;;;5124956;27;20487;-75
2023/06/03 01:49:26;;;;;;;0.00;0.00;;;7.00;99.90;;;;;;5124732;27;20142;-75
2023/06/03 01:51:51;;;;;;;0.00;0.00;;;6.90;99.90;;;;;;5124444;27;20103;-74
2023/06/03 01:54:18;;;;;;;0.00;0.00;;;7.00;1.00;;;;;;5123834;27;20047;-75
2023/06/03 01:56:44;;;;;;;0.00;0.00;;;6.90;99.90;;;;;;5124331;27;20051;-77
2023/06/03 01:59:09;;;;;;;0.20;0.20;;;6.80;1.00;;;;;;5124473;27;20130;-75
2023/06/03 02:01:36;;;;;;;0.05;0.05;;;6.80;99.90;;;;;;5124517;27;20493;-75
2023/06/03 02:04:02;;;;;;;0.00;0.00;;;6.70;1.00;;;;;;5125222;27;20128;-75
2023/06/03 02:06:28;;;;;;;0.85;0.55;;;6.70;99.90;;;;;;5124377;27;20051;-75
2023/06/03 02:08:53;;;;;;;0.00;0.00;;;6.60;99.90;;;;;;5124603;27;20481;-76
2023/06/03 02:11:19;;;;;;;0.95;0.35;;;6.50;99.90;;;;;;5124652;27;20086;-76
2023/06/03 02:13:44;;;;;;;0.10;0.10;;;6.50;99.90;;;;;;5124372;27;20059;-76
2023/06/03 02:16:11;;;;;;;1.85;0.75;;;6.50;99.90;;;;;;5124326;27;20043;-76
2023/06/03 02:18:37;;;;;;;0.08;0.08;;;6.40;99.90;;;;;;5124461;27;20099;-75
2023/06/03 02:21:03;;;;;;;0.00;0.00;;;6.40;99.90;;;;;;5124730;27;20561;-75
2023/06/03 02:23:28;;;;;;;0.00;0.00;;;6.40;1.00;;;;;;5124871;27;20042;-76
2023/06/03 02:25:55;;;;;;;0.00;0.00;;;6.40;99.90;;;;;;5124800;27;20435;-76
2023/06/03 02:28:22;;;;;;;0.00;0.00;;;6.40;99.90;;;;;;5124630;27;20131;-76
2023/06/03 02:30:48;;;;;;;0.00;0.00;;;6.30;99.90;;;;;;5106286;27;20051;-76
2023/06/03 02:33:14;;;;;;;0.22;0.22;;;6.40;7.50;;;;;;5125018;27;20066;-75
2023/06/03 02:35:40;;;;;;;0.00;0.00;;;6.40;1.00;;;;;;5124434;27;20079;-76
2023/06/03 02:38:05;;;;;;;0.00;0.00;;;6.30;1.00;;;;;;5124257;27;20446;-76
2023/06/03 02:40:31;;;;;;;0.32;0.30;;;6.30;62.30;;;;;;5123619;27;20043;-76
2023/06/03 02:42:57;;;;;;;0.03;0.03;;;6.30;55.10;;;;;;5123930;27;20126;-76
2023/06/03 02:45:22;;;;;;;0.47;0.30;;;6.10;99.90;;;;;;5123823;27;20094;-76
2023/06/03 02:47:48;;;;;;;0.00;0.00;;;6.10;99.90;;;;;;5124015;27;20214;-75
2023/06/03 02:50:14;;;;;;;0.00;0.00;;;6.10;99.90;;;;;;5123825;27;20054;-75
2023/06/03 02:52:40;;;;;;;0.30;0.30;;;6.00;99.90;;;;;;5124209;27;20099;-75
2023/06/03 02:55:07;;;;;;;0.00;0.00;;;5.90;1.00;;;;;;5123762;27;20119;-76
2023/06/03 02:57:33;;;;;;;0.30;0.15;;;5.90;99.90;;;;;;5124700;27;20051;-75
2023/06/03 02:59:58;;;;;;;0.00;0.00;;;5.80;83.70;;;;;;5124087;27;20043;-76
2023/06/03 03:02:25;;;;;;;0.20;0.17;;;5.70;99.90;;;;;;5123796;28;20043;-76
2023/06/03 03:04:51;;;;;;;0.00;0.00;;;5.60;1.00;;;;;;5123571;27;20051;-75
2023/06/03 03:07:17;;;;;;;0.00;0.00;;;5.60;99.90;;;;;;5127262;27;20561;-76
2023/06/03 03:09:43;;;;;;;0.00;0.00;;;5.60;85.10;;;;;;5128131;27;20039;-75
2023/06/03 03:12:09;;;;;;;0.20;0.20;;;5.60;30.40;;;;;;5127920;27;20047;-75
2023/06/03 03:14:34;;;;;;;0.00;0.00;;;5.60;26.40;;;;;;5128307;27;20095;-75
2023/06/03 03:17:00;;;;;;;0.65;0.52;;;5.50;99.90;;;;;;5128533;27;20564;-75
2023/06/03 03:19:26;;;;;;;0.00;0.00;;;5.50;1.00;;;;;;5127949;27;20501;-76
2023/06/03 03:21:51;;;;;;;0.00;0.00;;;5.60;99.90;;;;;;5128172;27;20047;-75
2023/06/03 03:24:17;;;;;;;0.00;0.00;;;5.60;1.00;;;;;;5127698;27;20074;-75
2023/06/03 03:26:43;;;;;;;0.00;0.00;;;5.60;15.80;;;;;;5128077;27;20417;-76
2023/06/03 03:29:08;;;;;;;0.00;0.00;;;5.60;1.00;;;;;;5128070;27;20502;-76
2023/06/03 03:31:34;;;;;;;0.00;0.00;;;5.60;1.00;;;;;;5127728;27;20045;-76
2023/06/03 03:34:02;;;;;;;0.00;0.00;;;5.60;8.20;;;;;;5127705;27;20049;-76
2023/06/03 03:36:28;;;;;;;0.00;0.00;;;5.60;99.90;;;;;;5128025;27;20043;-76
2023/06/03 03:39:05;;;;;;;0.77;0.77;;;5.60;1.00;;;;;;5127651;27;20046;-75
2023/06/03 03:41:31;;;;;;;0.00;0.00;;;5.70;97.70;;;;;;5127720;27;20055;-75
2023/06/03 03:43:57;;;;;;;0.17;0.17;;;5.70;1.00;;;;;;5127308;27;20428;-76
2023/06/03 03:46:23;;;;;;;0.00;0.00;;;5.80;99.90;;;;;;5127370;27;20047;-75
2023/06/03 03:48:48;;;;;;;0.08;0.08;;;5.80;99.90;;;;;;5127294;27;20523;-76
2023/06/03 03:51:14;;;;;;;0.00;0.00;;;5.90;99.90;;;;;;5127850;27;20444;-76
2023/06/03 03:53:47;;;;;;;0.00;0.00;;;6.00;99.90;;;;;;5127199;27;20102;-75
2023/06/03 03:56:18;;;;;;;0.00;0.00;;;6.00;99.90;;;;;;5126728;27;20035;-76
2023/06/03 03:58:44;;;;;;;0.00;0.00;;;6.10;99.90;;;;;;5108192;27;20055;-76
2023/06/03 04:01:12;;;;;;;0.00;0.00;;;6.10;28.00;;;;;;5126842;27;20081;-75
2023/06/03 04:03:42;;;;;;;0.00;0.00;;;6.10;10.80;;;;;;5126745;27;20051;-76
2023/06/03 04:06:09;;;;;;;0.00;0.00;;;6.20;4.80;;;;;;5126900;27;20035;-77
2023/06/03 04:08:40;;;;;;;0.03;0.03;;;6.30;1.00;;;;;;5127184;27;20050;-75
2023/06/03 04:11:08;;;;;;;0.10;0.10;;;6.40;99.90;;;;;;5126900;27;20053;-76
2023/06/03 04:13:36;;;;;;;0.35;0.35;;;6.60;99.90;;;;;;5126766;27;20104;-76
2023/06/03 04:16:26;;;;;;;0.20;0.20;;;6.70;58.10;;;;;;5126187;27;20050;-76
2023/06/03 04:18:52;;;;;;;0.00;0.00;;;6.80;99.90;;;;;;5126042;27;20064;-75
2023/06/03 04:21:19;;;;;;;0.38;0.35;;;6.90;99.90;;;;;;5125855;27;20043;-76
2023/06/03 04:23:46;;;;;;;0.00;0.00;;;7.00;22.70;;;;;;5125482;27;20387;-76
2023/06/03 04:26:15;;;;;;;0.08;0.08;;;7.20;1.00;;;;;;5125895;27;20053;-75
2023/06/03 04:28:41;;;;;;;0.08;0.08;;;7.30;99.90;;;;;;5125462;27;20669;-76
2023/06/03 04:31:07;;;;;;;0.30;0.30;;;7.50;99.90;;;;;;5125457;27;20047;-76
2023/06/03 04:33:33;;;;;;;0.00;0.00;;;7.70;1.00;;;;;;5125607;27;20709;-76
2023/06/03 04:35:59;;;;;;;0.00;0.00;;;7.90;99.90;;;;;;5125587;27;20047;-76
2023/06/03 04:38:25;;;;;;;0.10;0.10;;;8.00;99.90;;;;;;5125089;27;20157;-76
2023/06/03 04:40:51;;;;;;;0.00;0.00;;;8.10;99.90;;;;;;5125497;27;20051;-76
2023/06/03 04:43:18;;;;;;;0.00;0.00;;;8.20;1.00;;;;;;5125228;27;20498;-76
2023/06/03 04:45:45;;;;;;;0.63;0.43;;;8.60;99.90;;;;;;5125359;27;20050;-76
2023/06/03 04:48:13;;;;;;;0.00;0.00;;;9.20;88.70;;;;;;5125105;27;20043;-76
2023/06/03 04:50:43;;;;;;;0.00;0.00;;;10.10;1.00;;;;;;5125016;27;20516;-76
2023/06/03 04:53:12;;;;;;;0.00;0.00;;;11.00;1.00;;;;;;5124662;27;20050;-76
2023/06/03 04:55:43;;;;;;;0.00;0.00;;;11.80;1.00;;;;;;5125034;27;20099;-76
2023/06/03 04:58:12;;;;;;;8.77;0.77;;;12.40;99.90;;;;;;5125025;27;20055;-76
2023/06/03 05:00:40;;;;;;;0.00;0.00;;;13.00;99.90;;;;;;5125018;27;20059;-76
2023/06/03 05:03:10;;;;;;;0.45;0.45;;;13.60;99.90;;;;;;5106291;27;20130;-76
2023/06/03 05:05:41;;;;;;;0.15;0.10;;;13.90;99.90;;;;;;5124681;27;20039;-76
2023/06/03 05:08:08;;;;;;;1.77;1.08;;;14.40;99.90;;;;;;5125229;27;20059;-76
2023/06/03 05:10:34;;;;;;;0.00;0.00;;;14.70;99.90;;;;;;5124698;27;20572;-76
2023/06/03 05:13:00;;;;;;;0.00;0.00;;;14.90;99.90;;;;;;5124459;27;20134;-76
2023/06/03 05:15:25;;;;;;;0.00;0.00;;;15.10;99.90;;;;;;5124569;27;20152;-76
2023/06/03 05:17:52;;;;;;;0.00;0.00;;;15.40;99.90;;;;;;5124591;27;20043;-76
2023/06/03 05:20:17;;;;;;;0.25;0.20;;;15.40;98.30;;;;;;5124598;27;20466;-76
2023/06/03 05:22:43;;;;;;;0.00;0.00;;;15.30;97.40;;;;;;5124761;27;20118;-76
2023/06/03 05:25:09;;;;;;;0.00;0.00;;;15.50;93.70;;;;;;5124218;27;20438;-76
2023/06/03 05:27:34;;;;;;;0.00;0.00;;;15.90;95.70;;;;;;5124284;27;20077;-76
2023/06/03 05:30:01;;;;;;;0.38;0.25;;;16.50;99.90;;;;;;5123605;27;20043;-76
2023/06/03 05:32:26;;;;;;;0.00;0.00;;;16.60;90.90;;;;;;5124222;27;20095;-76
2023/06/03 05:34:52;;;;;;;0.17;0.17;;;16.40;88.80;;;;;;5123919;27;20451;-76
2023/06/03 05:37:18;;;;;;;0.38;0.30;;;17.00;93.00;;;;;;5124139;27;20047;-76
2023/06/03 05:39:43;;;;;;;0.00;0.00;;;17.30;91.00;;;;;;5124075;27;20074;-76
2023/06/03 05:42:09;;;;;;;0.10;0.10;;;16.80;65.00;;;;;;5124145;27;20078;-76
2023/06/03 05:44:35;;;;;;;0.00;0.00;;;17.00;77.00;;;;;;5123825;27;20051;-76
2023/06/03 05:47:00;;;;;;;0.60;0.20;;;16.60;52.60;;;;;;5124506;27;20039;-76
2023/06/03 05:49:26;;;;;;;0.00;0.00;;;16.60;44.80;;;;;;5124283;27;20160;-76
2023/06/03 05:51:52;;;;;;;10.57;0.65;;;16.30;37.80;;;;;;5124351;27;20092;-76
2023/06/03 05:54:17;;;;;;;0.03;0.03;;;16.70;47.80;;;;;;5123805;27;20519;-76
2023/06/03 05:56:43;;;;;;;0.00;0.00;;;17.30;53.00;;;;;;5124137;27;20054;-76
2023/06/03 05:59:08;;;;;;;0.45;0.20;;;17.50;49.20;;;;;;5123649;27;20458;-76
2023/06/03 06:01:35;;;;;;;0.32;0.30;;;17.70;49.90;;;;;;5123650;27;20532;-76
2023/06/03 06:04:01;;;;;;;0.22;0.15;;;17.70;29.50;;;;;;5124056;27;20065;-76
2023/06/03 06:06:26;;;;;;;0.22;0.20;;;17.70;20.90;;;;;;5123964;27;20414;-76
2023/06/03 06:08:52;;;;;;;0.00;0.00;;;17.30;9.00;;;;;;5123884;27;20122;-76
2023/06/03 06:11:18;;;;;;;0.20;0.15;;;17.80;14.00;;;;;;5123472;27;20497;-76
2023/06/03 06:13:43;;;;;;;1.65;0.65;;;17.90;23.40;;;;;;5102755;28;20122;-76
2023/06/03 06:16:09;;;;;;;0.45;0.08;;;18.00;27.00;;;;;;5103063;28;20054;-77
2023/06/03 06:18:36;;;;;;;0.00;0.00;;;18.20;41.40;;;;;;5103011;28;20134;-76
2023/06/03 06:21:02;;;;;;;0.00;0.00;;;18.00;17.20;;;;;;5102908;28;20130;-76
2023/06/03 06:23:27;;;;;;;0.00;0.00;;;18.00;14.50;;;;;;5103040;28;20044;-76
2023/06/03 06:25:54;;;;;;;0.52;0.30;;;18.70;41.80;;;;;;5102899;28;20163;-76
2023/06/03 06:28:24;;;;;;;0.00;0.00;;;18.50;8.60;;;;;;5102846;28;20452;-76
2023/06/03 06:30:55;;;;;;;0.00;0.00;;;18.00;4.50;;;;;;5102923;28;20552;-76
2023/06/03 06:33:21;;;;;;;0.00;0.00;;;17.40;1.00;;;;;;5082161;28;20041;-76
2023/06/03 06:35:47;;;;;;;0.03;0.03;;;17.50;1.00;;;;;;5065943;28;20041;-76
2023/06/03 06:38:13;;;;;;;0.05;0.05;;;18.20;5.20;;;;;;5062003;28;20040;-76
2023/06/03 06:40:40;;;;;;;1.08;0.50;;;19.40;47.30;;;;;;5062112;28;20036;-76
2023/06/03 06:43:07;;;;;;;0.00;0.00;;;20.20;32.50;;;;;;5062248;28;20109;-76
2023/06/03 06:45:36;;;;;;;0.20;0.20;;;20.80;26.40;;;;;;5061710;28;20062;-76
2023/06/03 06:48:08;;;;;;;0.10;0.10;;;20.10;10.50;;;;;;5062276;28;20052;-76
2023/06/03 06:50:55;;;;;;;0.10;0.10;;;20.40;6.20;;;;;;5061966;28;20045;-76
2023/06/03 06:53:23;;;;;;;0.10;0.10;;;20.40;1.20;;;;;;5062163;28;20041;-76
2023/06/03 06:56:01;;;;;;;0.10;0.10;;;20.50;1.00;;;;;;5061856;28;20509;-77
2023/06/03 06:58:33;;;;;;;0.00;0.00;;;20.10;1.00;;;;;;5062146;28;20059;-74
2023/06/03 07:01:00;;;;;;;0.68;0.30;;;20.40;3.40;;;;;;5061808;28;20049;-74
2023/06/03 07:03:26;;;;;;;0.50;0.38;;;20.90;8.50;;;;;;5061820;28;20049;-74
2023/06/03 07:05:53;;;;;;;0.00;0.00;;;21.90;27.60;;;;;;5062047;28;20047;-74
2023/06/03 07:08:23;;;;;;;0.10;0.10;;;22.30;27.30;;;;;;5066448;28;20060;-74
2023/06/03 07:10:49;;;;;;;0.22;0.10;;;22.60;11.80;;;;;;5061710;28;20048;-74
2023/06/03 07:13:15;;;;;;;0.00;0.00;;;21.70;1.00;;;;;;5113459;27;20046;-74
2023/06/03 07:15:41;;;;;;;0.00;0.00;;;21.60;1.00;;;;;;5122739;28;20111;-74
2023/06/03 07:18:09;;;;;;;0.00;0.00;;;21.80;1.00;;;;;;5122853;28;20035;-74
2023/06/03 07:20:42;;;;;;;0.25;0.20;;;23.10;16.80;;;;;;5122786;28;20524;-74
2023/06/03 07:23:13;;;;;;;0.00;0.00;;;23.10;1.00;;;;;;5104571;28;20134;-74
2023/06/03 07:25:44;;;;;;;0.00;0.00;;;23.80;1.00;;;;;;5122838;28;20051;-74
2023/06/03 07:28:15;;;;;;;0.77;0.40;;;23.90;1.00;;;;;;5122858;28;20417;-74
2023/06/03 07:30:42;;;;;;;0.10;0.10;;;23.10;1.00;;;;;;5122611;28;20047;-74
2023/06/03 07:33:11;;;;;;;1.23;0.38;;;23.50;1.00;;;;;;5122319;28;20521;-74
2023/06/03 07:35:37;;;;;;;0.00;0.00;;;23.70;1.00;;;;;;5122481;28;20465;-74
2023/06/03 07:38:04;;;;;;;0.30;0.25;;;24.70;1.00;;;;;;5122388;28;20103;-75
2023/06/03 07:40:40;;;;;;;0.00;0.00;;;25.30;1.00;;;;;;5122313;28;20047;-75
2023/06/03 07:43:06;;;;;;;0.00;0.00;;;24.60;1.00;;;;;;5122025;28;20509;-75
2023/06/03 07:45:34;;;;;;;0.00;0.00;;;24.80;1.00;;;;;;5122457;28;20051;-74
2023/06/03 07:48:04;;;;;;;0.00;0.00;;;23.80;1.00;;;;;;5122213;28;20047;-74
2023/06/03 07:50:32;;;;;;;0.00;0.00;;;24.80;1.00;;;;;;5122877;28;20166;-74
2023/06/03 07:53:00;;;;;;;0.17;0.17;;;24.60;1.00;;;;;;5124831;27;20493;-75
2023/06/03 07:55:28;;;;;;;0.00;0.00;;;25.30;1.00;;;;;;5125960;27;20035;-74
2023/06/03 07:57:53;;;;;;;0.00;0.00;;;24.80;1.00;;;;;;5126068;27;20519;-75
2023/06/03 08:00:19;;;;;;;0.22;0.22;;;25.40;1.00;;;;;;5125917;27;20043;-74
2023/06/03 08:02:44;;;;;;;0.00;0.00;;;26.00;1.00;;;;;;5107779;27;20057;-74
2023/06/03 08:05:10;;;;;;;0.10;0.10;;;26.20;1.00;;;;;;5126286;27;20039;-74
2023/06/03 08:07:37;;;;;;;0.00;0.00;;;25.30;1.00;;;;;;5126254;27;20057;-75
2023/06/03 08:10:03;;;;;;;0.25;0.10;;;24.40;1.00;;;;;;5108107;27;20446;-74
2023/06/03 08:12:34;;;;;;;0.00;0.00;;;23.50;1.00;;;;;;5125824;27;20082;-74
2023/06/03 08:15:01;;;;;;;0.10;0.03;;;23.60;1.00;;;;;;5126046;27;20061;-74
2023/06/03 08:17:41;;;;;;;0.00;0.00;;;23.80;1.00;;;;;;5126109;27;20454;-75
2023/06/03 08:20:10;;;;;;;0.00;0.00;;;24.70;1.00;;;;;;5126231;27;20047;-75
2023/06/03 08:22:42;;;;;;;0.00;0.00;;;24.40;1.00;;;;;;5125901;27;20483;-75
2023/06/03 08:25:08;;;;;;;0.10;0.00;;;24.10;1.00;;;;;;5125572;27;20047;-74
2023/06/03 08:27:35;;;;;;;0.00;0.00;;;22.90;1.00;;;;;;5125552;27;20046;-74
2023/06/03 08:30:03;;;;;;;0.32;0.22;;;21.80;1.00;;;;;;5125695;27;20054;-74
2023/06/03 08:32:32;;;;;;;1.08;0.47;;;20.90;1.00;;;;;;5125885;27;20509;-74
2023/06/03 08:34:57;;;;;;;0.00;0.00;;;20.40;1.00;;;;;;5125445;27;20118;-74
2023/06/03 08:37:23;;;;;;;0.00;0.00;;;20.10;99.90;;;;;;5125353;27;20266;-74
2023/06/03 08:39:49;;;;;;;0.00;0.00;;;19.40;99.90;;;;;;5106796;27;20054;-74
2023/06/03 08:42:22;;;;;;;0.00;0.00;;;19.20;99.90;;;;;;5124843;27;20043;-74
2023/06/03 08:44:59;;;;;;;0.00;0.00;;;19.60;99.90;;;;;;5125411;27;20470;-74
2023/06/03 08:47:51;;;;;;;0.00;0.00;;;20.30;1.00;;;;;;5125822;27;20051;-74
2023/06/03 08:50:20;;;;;;;0.00;0.00;;;21.40;1.00;;;;;;5125201;27;20043;-74
2023/06/03 08:52:47;;;;;;;0.32;0.32;;;22.30;1.00;;;;;;5125250;27;20050;-74
2023/06/03 08:55:16;;;;;;;0.00;0.00;;;22.80;1.00;;;;;;5125285;27;20043;-74
2023/06/03 08:58:07;;;;;;;1.08;0.38;;;23.40;1.00;;;;;;5125307;27;20240;-74
2023/06/03 09:00:34;;;;;;;0.00;0.00;;;23.50;1.00;;;;;;5106993;27;20047;-74
2023/06/03 09:03:03;;;;;;;0.15;0.15;;;23.40;1.00;;;;;;5124278;27;20051;-73
2023/06/03 09:05:29;;;;;;;0.00;0.00;;;23.70;1.00;;;;;;5105912;27;20442;-74
2023/06/03 09:07:56;;;;;;;0.00;0.00;;;24.20;1.00;;;;;;5125069;27;20050;-75
2023/06/03 09:10:22;;;;;;;0.20;0.10;;;25.00;1.00;;;;;;5125174;27;20114;-74
2023/06/03 09:12:48;;;;;;;0.00;0.00;;;24.60;1.00;;;;;;5124725;27;20462;-75
2023/06/03 09:15:14;;;;;;;0.47;0.25;;;25.00;1.00;;;;;;5124478;27;20469;-74
2023/06/03 09:17:44;;;;;;;0.00;0.00;;;25.10;1.00;;;;;;5124427;27;20417;-74
2023/06/03 09:20:11;;;;;;;0.00;0.00;;;25.80;1.00;;;;;;5124781;27;20047;-75
2023/06/03 09:22:39;;;;;;;0.20;0.15;;;26.80;1.00;;;;;;5124795;27;20043;-75
2023/06/03 09:25:05;;;;;;;0.40;0.38;;;26.70;1.00;;;;;;5124298;27;20051;-75
2023/06/03 09:27:31;;;;;;;0.00;0.00;;;26.70;1.00;;;;;;5124562;27;20046;-75
2023/06/03 09:29:58;;;;;;;0.10;0.10;;;26.20;1.00;;;;;;5124084;27;20043;-75
2023/06/03 09:32:23;;;;;;;0.20;0.20;;;26.30;1.00;;;;;;5124925;27;20049;-75
2023/06/03 09:34:50;;;;;;;0.10;0.08;;;25.90;1.00;;;;;;5124414;27;20547;-75
2023/06/03 09:37:15;;;;;;;0.00;0.00;;;25.90;1.00;;;;;;5124857;27;20047;-75
2023/06/03 09:39:41;;;;;;;0.00;0.00;;;25.50;1.00;;;;;;5124367;27;20481;-75
2023/06/03 09:42:07;;;;;;;0.00;0.00;;;24.80;1.00;;;;;;5124229;27;20051;-75
2023/06/03 09:44:43;;;;;;;0.15;0.15;;;25.20;1.00;;;;;;5124080;27;20668;-75
2023/06/03 09:47:11;;;;;;;0.00;0.00;;;25.50;1.00;;;;;;5125015;27;20043;-76
2023/06/03 09:49:37;;;;;;;5.68;1.10;;;26.30;1.00;;;;;;5124280;27;20047;-75
2023/06/03 09:52:07;;;;;;;0.08;0.00;;;26.00;1.00;;;;;;5124031;27;20043;-75
2023/06/03 09:54:33;;;;;;;0.00;0.00;;;24.80;1.00;;;;;;5123915;27;20053;-75
2023/06/03 09:57:10;;;;;;;0.00;0.00;;;25.10;1.00;;;;;;5123824;27;20131;-75
2023/06/03 09:59:36;;;;;;;0.03;0.03;;;24.90;1.00;;;;;;5123799;27;20043;-75
2023/06/03 10:02:07;;;;;;;0.35;0.20;;;23.80;1.00;;;;;;5124114;27;20557;-74
2023/06/03 10:04:46;;;;;;;0.20;0.20;;;23.80;1.00;;;;;;5123549;27;20631;-74
2023/06/03 10:07:13;;;;;;;0.00;0.00;;;24.30;1.00;;;;;;5123596;27;20443;-75
2023/06/03 10:09:47;;;;;;;0.20;0.10;;;24.30;1.00;;;;;;5123382;27;20039;-75
2023/06/03 10:12:27;;;;;;;0.00;0.00;;;23.60;1.00;;;;;;5123313;27;20059;-75
2023/06/03 10:14:56;;;;;;;0.00;0.00;;;23.30;1.00;;;;;;5122921;27;20448;-75
2023/06/03 10:17:21;;;;;;;4.25;1.08;;;23.40;1.00;;;;;;5123270;27;20055;-75
2023/06/03 10:19:48;;;;;;;0.10;0.10;;;23.40;1.00;;;;;;5123412;27;20047;-75
2023/06/03 10:22:18;;;;;;;0.15;0.15;;;23.60;1.00;;;;;;5123181;27;20065;-75
2023/06/03 10:24:49;;;;;;;0.00;0.00;;;23.40;1.00;;;;;;5123511;27;20047;-75
2023/06/03 10:27:16;;;;;;;0.00;0.00;;;23.10;1.00;;;;;;5123744;27;20376;-75
2023/06/03 10:29:42;;;;;;;0.00;0.00;;;23.50;1.00;;;;;;5123241;27;20046;-74
2023/06/03 10:32:12;;;;;;;0.10;0.00;;;23.90;1.00;;;;;;5123152;27;20046;-73
2023/06/03 10:34:42;;;;;;;0.00;0.00;;;23.40;1.00;;;;;;5123323;27;20043;-72
2023/06/03 10:37:09;;;;;;;0.00;0.00;;;23.00;1.00;;;;;;5123548;27;20047;-72
2023/06/03 10:39:36;;;;;;;0.65;0.45;;;23.10;99.90;;;;;;5123178;27;20092;-72
2023/06/03 10:42:05;;;;;;;0.00;0.00;;;22.70;1.00;;;;;;5123404;27;20462;-74
2023/06/03 10:44:32;;;;;;;0.10;0.10;;;22.50;99.90;;;;;;5122877;27;20074;-75
2023/06/03 10:47:20;;;;;;;0.32;0.32;;;23.00;1.00;;;;;;5122868;27;20129;-75
2023/06/03 10:50:09;;;;;;;0.00;0.00;;;23.40;1.00;;;;;;5123244;27;20043;-75
2023/06/03 10:52:50;;;;;;;0.00;0.00;;;24.20;1.00;;;;;;5104851;28;20051;-75
2023/06/03 10:55:34;;;;;;;0.10;0.10;;;24.60;1.00;;;;;;5122969;27;20096;-74
2023/06/03 10:58:06;;;;;;;0.00;0.00;;;24.80;1.00;;;;;;5123208;27;20177;-74
2023/06/03 11:00:55;;;;;;;0.15;0.15;;;24.40;1.00;;;;;;5122880;27;20043;-75
2023/06/03 11:03:22;;;;;;;0.00;0.00;;;23.40;99.90;;;;;;5122988;27;20105;-74
2023/06/03 11:05:48;;;;;;;0.20;0.10;;;23.00;99.90;;;;;;5123051;28;20050;-75
2023/06/03 11:08:34;;;;;;;0.00;0.00;;;23.00;99.90;;;;;;5122817;28;20046;-75
2023/06/03 11:11:00;;;;;;;1.40;0.30;;;23.10;1.00;;;;;;5122808;28;20126;-74
2023/06/03 11:13:40;;;;;;;0.00;0.00;;;22.90;99.90;;;;;;5122510;28;20464;-74
2023/06/03 11:16:06;;;;;;;0.10;0.05;;;23.20;1.00;;;;;;5122654;28;20089;-75
2023/06/03 11:18:32;;;;;;;0.00;0.00;;;23.90;1.00;;;;;;5122536;28;20503;-75
2023/06/03 11:20:58;;;;;;;0.40;0.32;;;24.20;1.00;;;;;;5123136;28;20498;-75
2023/06/03 11:23:43;;;;;;;0.00;0.00;;;24.50;1.00;;;;;;5122794;28;20055;-75
2023/06/03 11:26:35;;;;;;;0.15;0.08;;;25.10;1.00;;;;;;5105207;28;20046;-75
2023/06/03 11:29:05;;;;;;;0.00;0.00;;;25.30;1.00;;;;;;5127847;27;20115;-75
2023/06/03 11:31:31;;;;;;;0.00;0.00;;;24.50;1.00;;;;;;5128618;27;20871;-74
2023/06/03 11:34:17;;;;;;;0.00;0.00;;;24.10;1.00;;;;;;5128164;27;20062;-74
2023/06/03 11:36:55;;;;;;;;;;;24.40;1.00;;;;;;5111185;27;20835;-74
2023/06/03 11:39:22;;;;;;;0.20;0.15;;;25.50;1.00;;;;;;5128047;27;19930;-74
2023/06/03 11:42:05;;;;;;;0.80;0.45;;;26.30;1.00;;;;;;5128766;27;20087;-74
2023/06/03 11:44:32;;;;;;;8.20;2.38;;;26.30;1.00;;;;;;5126994;27;20415;-74
2023/06/03 11:46:57;;;;;;;0.10;0.10;;;26.90;1.00;;;;;;5126098;27;20062;-74
2023/06/03 11:49:24;;;;;;;1.45;0.63;;;27.50;1.00;;;;;;5126562;27;20129;-74
2023/06/03 11:51:57;;;;;;;0.52;0.40;;;28.20;1.00;;;;;;5126821;27;20733;-74
2023/06/03 11:54:23;;;;;;;0.08;0.05;;;27.60;1.00;;;;;;5126409;27;20468;-74
2023/06/03 11:56:51;;;;;;;0.00;0.00;;;28.10;1.00;;;;;;5125916;27;20039;-74
2023/06/03 11:59:20;;;;;;;0.10;0.10;;;28.80;1.00;;;;;;5125716;27;20109;-74
2023/06/03 12:02:04;;;;;;;0.00;0.00;;;29.30;1.00;;;;;;5125482;27;20099;-74
2023/06/03 12:04:30;;;;;;;0.00;0.00;;;29.40;1.00;;;;;;5125762;27;20047;-73
2023/06/03 12:06:57;;;;;;;0.00;0.00;;;29.50;1.00;;;;;;5125747;27;20069;-73
2023/06/03 12:09:27;;;;;;;0.28;0.15;;;30.00;1.00;;;;;;5126112;27;20075;-74
2023/06/03 12:11:57;;;;;;;0.20;0.20;;;29.70;1.00;;;;;;5126105;27;20047;-74
2023/06/03 12:14:26;;;;;;;0.00;0.00;;;30.10;1.00;;;;;;5125820;27;20088;-74
2023/06/03 12:16:53;;;;;;;0.63;0.20;;;30.20;1.00;;;;;;5125865;27;20058;-74
2023/06/03 12:19:19;;;;;;;0.00;0.00;;;29.60;1.00;;;;;;5126020;27;20116;-74
2023/06/03 12:21:58;;;;;;;0.73;0.38;;;30.10;1.00;;;;;;5126010;27;20051;-74
2023/06/03 12:24:31;;;;;;;0.77;0.28;;;29.90;1.00;;;;;;5125760;27;20035;-74
2023/06/03 12:27:10;;;;;;;0.00;0.00;;;30.30;1.00;;;;;;5125953;27;20152;-74
2023/06/03 12:29:43;;;;;;;4.53;0.32;;;30.70;1.00;;;;;;5125902;27;20413;-73
2023/06/03 12:32:09;;;;;;;1.95;0.35;;;30.90;1.00;;;;;;5125061;27;20058;-74
2023/06/03 12:34:36;;;;;;;0.20;0.10;;;30.70;1.00;;;;;;5125625;27;20409;-74
2023/06/03 12:37:03;;;;;;;0.00;0.00;;;30.60;1.00;;;;;;5107013;27;20091;-74
2023/06/03 12:39:49;;;;;;;0.00;0.00;;;30.10;1.00;;;;;;5124965;27;20402;-74
2023/06/03 12:42:34;;;;;;;0.63;0.40;;;29.90;1.00;;;;;;5125543;27;20043;-75
2023/06/03 12:45:00;;;;;;;0.52;0.38;;;30.70;1.00;;;;;;5125466;27;20046;-75
2023/06/03 12:47:25;;;;;;;0.00;0.00;;;31.10;1.00;;;;;;5125449;27;20548;-74
2023/06/03 12:50:08;;;;;;;1.63;0.90;;;30.60;1.00;;;;;;5124757;27;20082;-74
2023/06/03 12:52:36;;;;;;;0.75;0.38;;;29.30;99.90;;;;;;5124640;27;20043;-74
2023/06/03 12:55:07;;;;;;;0.00;0.00;;;29.90;99.90;;;;;;5125370;27;20142;-75
2023/06/03 12:57:44;;;;;;;0.25;0.20;;;30.70;1.00;;;;;;5125208;27;20569;-75
2023/06/03 13:00:19;;;;;;;5.00;0.52;;;30.30;99.90;;;;;;5125073;27;20114;-74
2023/06/03 13:02:49;;;;;;;0.05;0.05;;;30.00;99.90;;;;;;5125110;27;20051;-75